createdAt,value
2023-05-04T00:02:02.576Z,61.05
2023-05-04T00:04:46.352Z,61.74
2023-05-04T00:07:30.252Z,60.21
2023-05-04T00:10:13.868Z,59.56
2023-05-04T00:12:57.418Z,58.61
2023-05-04T00:15:41.635Z,58.89
2023-05-04T00:18:25.253Z,59.84
2023-05-04T00:21:09.037Z,61.82
2023-05-04T00:23:52.686Z,61.73
2023-05-04T00:26:36.344Z,63.88
2023-05-04T00:29:20.152Z,63.77
2023-05-04T00:32:04.476Z,62.07
2023-05-04T00:34:49.508Z,61.86
2023-05-04T00:37:33.123Z,63.25
2023-05-04T00:40:16.840Z,60.99
2023-05-04T00:43:01.004Z,61.68
2023-05-04T00:45:44.877Z,65.46
2023-05-04T00:48:28.488Z,62.80
2023-05-04T00:51:14.519Z,64.04
2023-05-04T00:54:01.012Z,63.22
2023-05-04T00:56:45.410Z,63.31
2023-05-04T00:59:29.128Z,63.51
2023-05-04T01:02:12.644Z,63.97
2023-05-04T01:04:56.456Z,63.25
2023-05-04T01:07:54.331Z,64.37
2023-05-04T01:10:47.420Z,64.10
2023-05-04T01:13:36.191Z,62.87
2023-05-04T01:16:20.325Z,63.67
2023-05-04T01:19:05.355Z,62.92
2023-05-04T01:21:48.998Z,62.54
2023-05-04T01:24:33.783Z,63.68
2023-05-04T01:27:36.405Z,64.18
2023-05-04T01:30:28.446Z,62.98
2023-05-04T01:33:12.783Z,61.94
2023-05-04T01:35:59.615Z,62.91
2023-05-04T01:38:43.282Z,62.75
2023-05-04T01:41:33.074Z,63.61
2023-05-04T01:44:16.816Z,63.99
2023-05-04T01:47:00.884Z,62.81
2023-05-04T01:49:44.651Z,63.53
2023-05-04T01:52:28.360Z,63.77
2023-05-04T01:55:12.336Z,63.70
2023-05-04T01:57:56.000Z,62.93
2023-05-04T02:00:39.797Z,62.50
2023-05-04T02:03:23.693Z,62.99
2023-05-04T02:06:07.652Z,63.36
2023-05-04T02:08:53.531Z,64.03
2023-05-04T02:11:37.106Z,64.03
2023-05-04T02:14:21.140Z,63.72
2023-05-04T02:17:04.834Z,64.44
2023-05-04T02:19:48.370Z,63.07
2023-05-04T02:22:31.937Z,64.22
2023-05-04T02:25:16.042Z,65.94
2023-05-04T02:27:59.560Z,65.55
2023-05-04T02:30:43.068Z,65.29
2023-05-04T02:33:26.695Z,65.37
2023-05-04T02:36:10.248Z,64.75
2023-05-04T02:38:55.319Z,66.06
2023-05-04T02:41:38.868Z,65.32
2023-05-04T02:44:22.387Z,65.09
2023-05-04T02:47:06.370Z,65.78
2023-05-04T02:49:49.906Z,65.53
2023-05-04T02:52:34.192Z,65.69
2023-05-04T02:55:17.678Z,65.06
2023-05-04T02:58:01.374Z,65.95
2023-05-04T03:00:44.912Z,65.95
2023-05-04T03:03:28.452Z,66.63
2023-05-04T03:06:12.309Z,66.32
2023-05-04T03:08:56.077Z,65.53
2023-05-04T03:11:39.559Z,66.32
2023-05-04T03:14:23.425Z,66.17
2023-05-04T03:17:07.245Z,66.35
2023-05-04T03:19:50.817Z,66.31
2023-05-04T03:22:34.778Z,66.73
2023-05-04T03:25:18.832Z,67.57
2023-05-04T03:28:02.447Z,66.89
2023-05-04T03:30:45.976Z,66.98
2023-05-04T03:33:29.574Z,67.08
2023-05-04T03:36:13.694Z,67.25
2023-05-04T03:38:58.116Z,67.55
2023-05-04T03:41:41.740Z,68.46
2023-05-04T03:44:25.377Z,69.05
2023-05-04T03:47:08.985Z,68.88
2023-05-04T03:49:52.713Z,68.14
2023-05-04T03:52:37.476Z,68.39
2023-05-04T03:55:21.468Z,68.61
2023-05-04T03:58:07.326Z,68.04
2023-05-04T04:00:51.052Z,67.18
2023-05-04T04:03:44.125Z,67.95
2023-05-04T04:06:30.103Z,67.72
2023-05-04T04:09:13.596Z,69.52
2023-05-04T04:11:57.578Z,70.55
2023-05-04T04:14:41.274Z,71.86
2023-05-04T04:17:25.027Z,72.19
2023-05-04T04:20:10.034Z,71.81
2023-05-04T04:22:53.884Z,72.14
2023-05-04T04:25:38.002Z,72.58
2023-05-04T04:28:21.646Z,72.92
2023-05-04T04:31:05.255Z,73.66
2023-05-04T04:33:51.502Z,74.41
2023-05-04T04:36:35.118Z,74.22
2023-05-04T04:39:18.775Z,74.60
2023-05-04T04:42:02.886Z,74.24
2023-05-04T04:44:46.376Z,73.62
2023-05-04T04:47:29.894Z,73.85
2023-05-04T04:50:13.572Z,72.98
2023-05-04T04:52:57.137Z,73.81
2023-05-04T04:55:42.053Z,73.92
2023-05-04T04:58:25.626Z,73.24
2023-05-04T05:01:09.268Z,74.69
2023-05-04T05:03:52.819Z,72.74
2023-05-04T05:06:36.855Z,72.59
2023-05-04T05:09:20.398Z,72.95
2023-05-04T05:12:07.365Z,72.68
2023-05-04T05:14:51.131Z,72.49
2023-05-04T05:17:35.804Z,72.50
2023-05-04T05:20:19.372Z,72.43
2023-05-04T05:23:03.007Z,71.82
2023-05-04T05:25:46.525Z,71.76
2023-05-04T05:28:30.483Z,71.82
2023-05-04T05:31:14.007Z,72.05
2023-05-04T05:33:57.596Z,71.87
2023-05-04T05:36:41.096Z,71.21
2023-05-04T05:39:24.649Z,69.85
2023-05-04T05:42:08.417Z,71.30
2023-05-04T05:44:51.951Z,71.70
2023-05-04T05:47:35.605Z,70.48
2023-05-04T05:50:20.147Z,69.77
2023-05-04T05:53:03.688Z,69.28
2023-05-04T05:55:47.577Z,68.58
2023-05-04T05:58:31.379Z,70.05
2023-05-04T06:01:15.181Z,69.91
2023-05-04T06:03:58.990Z,68.83
2023-05-04T06:06:45.144Z,68.96
2023-05-04T06:09:29.512Z,68.08
2023-05-04T06:12:17.286Z,67.69
2023-05-04T06:15:00.782Z,67.81
2023-05-04T06:17:44.349Z,67.05
2023-05-04T06:20:29.243Z,67.33
2023-05-04T06:23:14.714Z,66.81
2023-05-04T06:25:58.708Z,67.05
2023-05-04T06:28:42.284Z,65.95
2023-05-04T06:31:25.991Z,66.43
2023-05-04T06:34:09.473Z,66.43
2023-05-04T06:36:52.996Z,65.54
2023-05-04T06:39:36.505Z,65.03
2023-05-04T06:42:21.094Z,64.79
2023-05-04T06:45:06.990Z,64.80
2023-05-04T06:47:50.517Z,63.95
2023-05-04T06:50:34.064Z,62.60
2023-05-04T06:53:17.597Z,62.56
2023-05-04T06:56:01.109Z,61.54
2023-05-04T06:58:44.609Z,62.00
2023-05-04T07:01:28.276Z,62.17
2023-05-04T07:04:11.812Z,61.38
2023-05-04T07:06:55.324Z,59.05
2023-05-04T07:09:38.895Z,60.19
2023-05-04T07:12:22.465Z,61.02
2023-05-04T07:15:06.847Z,59.18
2023-05-04T07:17:50.813Z,60.19
2023-05-04T07:20:34.410Z,60.85
2023-05-04T07:23:18.118Z,59.67
2023-05-04T07:26:01.844Z,59.79
2023-05-04T07:28:45.452Z,59.04
2023-05-04T07:31:30.668Z,59.09
2023-05-04T07:34:14.527Z,57.85
2023-05-04T07:36:58.080Z,57.59
2023-05-04T07:39:41.785Z,57.45
2023-05-04T07:42:28.029Z,56.50
2023-05-04T07:45:11.985Z,56.25
2023-05-04T07:47:55.548Z,56.69
2023-05-04T07:50:39.375Z,55.79
2023-05-04T07:53:25.546Z,55.27
2023-05-04T07:56:13.856Z,54.92
2023-05-04T07:58:57.484Z,53.19
2023-05-04T08:01:43.702Z,52.51
2023-05-04T08:04:27.682Z,53.04
2023-05-04T08:07:11.267Z,51.76
2023-05-04T08:09:56.016Z,51.28
2023-05-04T08:12:42.741Z,50.75
2023-05-04T08:15:26.455Z,48.86
2023-05-04T08:18:12.386Z,50.55
2023-05-04T08:20:56.016Z,48.97
2023-05-04T08:23:39.487Z,47.98
2023-05-04T08:26:23.832Z,46.82
2023-05-04T08:29:10.609Z,46.28
2023-05-04T08:31:57.764Z,45.41
2023-05-04T08:34:41.384Z,45.97
2023-05-04T08:37:24.912Z,45.86
2023-05-04T08:40:09.444Z,44.20
2023-05-04T08:42:53.679Z,42.18
2023-05-04T08:45:42.346Z,43.64
2023-05-04T08:48:26.119Z,44.50
2023-05-04T08:51:10.538Z,42.23
2023-05-04T08:53:55.809Z,41.45
2023-05-04T08:56:40.926Z,39.43
2023-05-04T08:59:28.189Z,40.00
2023-05-04T09:02:14.119Z,39.61
2023-05-04T09:04:58.006Z,40.69
2023-05-04T09:07:41.488Z,39.14
2023-05-04T09:10:28.149Z,38.09
2023-05-04T09:13:13.079Z,39.57
2023-05-04T09:15:58.469Z,38.60
2023-05-04T09:18:44.748Z,37.04
2023-05-04T09:21:30.736Z,36.88
2023-05-04T09:24:14.503Z,36.56
2023-05-04T09:27:10.915Z,36.40
2023-05-04T09:29:55.381Z,35.09
2023-05-04T09:32:49.760Z,37.96
2023-05-04T09:35:34.388Z,37.66
2023-05-04T09:38:35.258Z,37.78
2023-05-04T09:41:20.016Z,38.75
2023-05-04T09:44:04.950Z,38.75
2023-05-04T09:47:00.694Z,39.79
2023-05-04T09:49:44.588Z,37.85
2023-05-04T09:52:33.575Z,37.60
2023-05-04T09:55:21.093Z,36.56
2023-05-04T10:02:21.177Z,39.60
2023-05-04T10:05:09.481Z,40.28
2023-05-04T10:07:53.432Z,39.24
2023-05-04T10:10:39.700Z,39.53
2023-05-04T10:13:25.138Z,38.73
2023-05-04T10:16:29.810Z,37.97
2023-05-04T10:19:53.224Z,38.27
2023-05-04T10:23:02.622Z,37.29
2023-05-04T10:26:26.559Z,37.38
2023-05-04T10:29:33.440Z,36.60
2023-05-04T10:32:23.825Z,37.43
2023-05-04T10:35:10.197Z,37.24
2023-05-04T10:37:55.870Z,37.64
2023-05-04T10:40:41.056Z,36.48
2023-05-04T10:43:24.724Z,35.74
2023-05-04T10:46:24.609Z,35.38
2023-05-04T10:49:18.464Z,35.00
2023-05-04T10:52:07.229Z,35.95
2023-05-04T10:55:01.043Z,36.30
2023-05-04T10:57:54.547Z,34.70
2023-05-04T11:00:41.177Z,34.01
2023-05-04T11:03:25.219Z,34.43
2023-05-04T11:06:23.994Z,33.21
2023-05-04T11:09:10.741Z,35.45
2023-05-04T11:11:56.074Z,36.20
2023-05-04T11:14:43.512Z,33.44
2023-05-04T11:17:28.603Z,33.90
2023-05-04T11:20:26.337Z,33.90
2023-05-04T11:23:10.566Z,33.42
2023-05-04T11:25:55.001Z,32.15
2023-05-04T11:28:39.688Z,33.30
2023-05-04T11:31:23.374Z,34.21
2023-05-04T11:34:08.772Z,32.39
2023-05-04T11:36:54.348Z,32.72
2023-05-04T11:39:38.326Z,31.86
2023-05-04T11:42:21.858Z,32.86
2023-05-04T11:45:13.801Z,33.36
2023-05-04T11:50:42.339Z,31.63
2023-05-04T11:53:26.424Z,32.91
2023-05-04T11:56:10.030Z,31.35
2023-05-04T11:58:53.516Z,30.98
2023-05-04T12:01:37.403Z,32.42
2023-05-04T12:04:21.040Z,31.37
2023-05-04T12:07:08.639Z,32.25
2023-05-04T12:09:52.282Z,31.77
2023-05-04T12:12:36.599Z,33.13
2023-05-04T12:15:35.735Z,33.83
2023-05-04T12:18:29.571Z,34.23
2023-05-04T12:21:21.673Z,33.18
2023-05-04T12:24:06.744Z,34.03
2023-05-04T12:26:50.938Z,33.28
2023-05-04T12:29:34.490Z,32.45
2023-05-04T12:32:18.845Z,32.73
2023-05-04T12:35:02.640Z,32.03
2023-05-04T12:37:46.672Z,33.23
2023-05-04T12:40:30.976Z,31.30
2023-05-04T12:43:14.538Z,30.61
2023-05-04T12:45:58.175Z,29.90
2023-05-04T12:48:41.768Z,31.53
2023-05-04T12:51:25.520Z,32.78
2023-05-04T12:54:09.095Z,32.69
2023-05-04T12:56:53.539Z,32.09
2023-05-04T12:59:37.084Z,30.79
2023-05-04T13:02:20.692Z,33.23
2023-05-04T13:05:04.701Z,34.77
2023-05-04T13:07:48.411Z,31.95
2023-05-04T13:10:31.923Z,31.55
2023-05-04T13:13:17.863Z,32.27
2023-05-04T13:16:02.094Z,32.05
2023-05-04T13:18:45.669Z,32.08
2023-05-04T13:21:29.249Z,31.76
2023-05-04T13:24:12.864Z,31.36
2023-05-04T13:26:56.744Z,31.51
2023-05-04T13:29:41.699Z,32.15
2023-05-04T13:32:27.619Z,30.97
2023-05-04T13:35:11.323Z,30.25
2023-05-04T13:37:54.868Z,30.15
2023-05-04T13:40:38.607Z,33.47
2023-05-04T13:43:23.023Z,29.31
2023-05-04T13:46:06.534Z,31.16
2023-05-04T13:48:50.226Z,32.39
2023-05-04T13:51:34.892Z,29.54
2023-05-04T13:54:18.382Z,30.36
2023-05-04T13:57:02.325Z,30.40
2023-05-04T13:59:54.922Z,31.44
2023-05-04T14:02:54.313Z,31.27
2023-05-04T14:05:37.924Z,30.20
2023-05-04T14:08:21.615Z,33.10
2023-05-04T14:11:05.804Z,31.33
2023-05-04T14:13:49.349Z,29.40
2023-05-04T14:16:32.986Z,29.79
2023-05-04T14:19:16.728Z,29.25
2023-05-04T14:22:00.430Z,28.41
2023-05-04T14:24:44.032Z,29.86
2023-05-04T14:27:27.979Z,28.47
2023-05-04T14:30:12.357Z,29.44
2023-05-04T14:32:58.301Z,30.29
2023-05-04T14:35:44.667Z,30.02
2023-05-04T14:38:29.978Z,30.95
2023-05-04T14:41:14.439Z,30.43
2023-05-04T14:43:57.986Z,28.68
2023-05-04T14:46:41.521Z,27.85
2023-05-04T14:49:36.557Z,29.05
2023-05-04T14:52:21.437Z,30.16
2023-05-04T14:55:08.702Z,30.59
2023-05-04T14:57:52.361Z,30.24
2023-05-04T15:00:38.245Z,29.78
2023-05-04T15:03:23.801Z,29.52
2023-05-04T15:06:10.235Z,31.21
2023-05-04T15:08:54.535Z,28.39
2023-05-04T15:11:39.181Z,30.93
2023-05-04T15:14:23.555Z,29.17
2023-05-04T15:17:07.622Z,28.22
2023-05-04T15:19:52.011Z,29.12
2023-05-04T15:22:35.695Z,29.17
2023-05-04T15:25:20.168Z,29.73
2023-05-04T15:28:04.561Z,29.08
2023-05-04T15:30:48.076Z,30.31
2023-05-04T15:33:32.350Z,28.36
2023-05-04T15:36:15.875Z,29.55
2023-05-04T15:38:59.416Z,27.49
2023-05-04T15:41:43.123Z,29.67
2023-05-04T15:44:27.874Z,28.26
2023-05-04T15:47:12.590Z,29.17
2023-05-04T15:49:56.252Z,29.00
2023-05-04T15:52:40.090Z,29.04
2023-05-04T15:55:26.273Z,27.65
2023-05-04T15:58:11.619Z,27.88
2023-05-04T16:00:55.378Z,28.02
2023-05-04T16:03:38.997Z,26.31
2023-05-04T16:06:23.720Z,28.75
2023-05-04T16:09:07.669Z,29.54
2023-05-04T16:11:51.350Z,28.64
2023-05-04T16:14:34.953Z,28.20
2023-05-04T16:17:18.499Z,27.93
2023-05-04T16:20:04.030Z,27.80
2023-05-04T16:22:47.729Z,27.77
2023-05-04T16:25:31.297Z,29.26
2023-05-04T16:28:14.867Z,28.21
2023-05-04T16:30:58.421Z,28.00
2023-05-04T16:33:47.302Z,29.61
2023-05-04T16:36:31.760Z,29.16
2023-05-04T16:39:16.580Z,28.77
2023-05-04T16:42:02.371Z,29.48
2023-05-04T16:44:46.257Z,29.60
2023-05-04T16:47:29.811Z,28.66
2023-05-04T16:50:14.329Z,29.09
2023-05-04T16:52:58.354Z,28.84
2023-05-04T16:55:41.923Z,29.19
2023-05-04T16:58:25.778Z,29.52
2023-05-04T17:05:22.705Z,28.89
2023-05-04T17:08:06.961Z,28.89
2023-05-04T17:10:50.894Z,28.80
2023-05-04T17:13:34.982Z,29.54
2023-05-04T17:16:19.137Z,30.98
2023-05-04T17:19:03.002Z,30.93
2023-05-04T17:21:46.703Z,30.17
2023-05-04T17:24:30.484Z,30.31
2023-05-04T17:27:14.138Z,30.35
2023-05-04T17:29:58.013Z,30.64
2023-05-04T17:32:41.677Z,30.09
2023-05-04T17:35:26.460Z,30.24
2023-05-04T17:38:10.338Z,29.96
2023-05-04T17:40:53.893Z,30.42
2023-05-04T17:43:38.050Z,30.09
2023-05-04T17:46:21.817Z,30.30
2023-05-04T17:49:06.066Z,30.41
2023-05-04T17:51:49.688Z,30.80
2023-05-04T17:54:33.242Z,30.33
2023-05-04T17:57:16.783Z,31.53
2023-05-04T18:00:00.399Z,31.86
2023-05-04T18:02:44.107Z,31.40
2023-05-04T18:05:27.664Z,31.30
2023-05-04T18:08:11.195Z,32.77
2023-05-04T18:10:54.890Z,32.65
2023-05-04T18:13:38.428Z,32.48
2023-05-04T18:16:24.108Z,32.86
2023-05-04T18:19:08.181Z,33.49
2023-05-04T18:21:51.822Z,33.28
2023-05-04T18:24:35.459Z,32.82
2023-05-04T18:27:18.982Z,33.74
2023-05-04T18:30:05.824Z,34.33
2023-05-04T18:32:50.435Z,35.02
2023-05-04T18:35:34.198Z,35.37
2023-05-04T18:38:17.740Z,35.78
2023-05-04T18:41:01.432Z,35.25
2023-05-04T18:43:45.427Z,35.09
2023-05-04T18:46:29.093Z,34.28
2023-05-04T18:49:12.751Z,34.89
2023-05-04T18:51:56.399Z,35.43
2023-05-04T18:54:39.896Z,35.50
2023-05-04T18:57:23.486Z,36.09
2023-05-04T19:00:09.287Z,35.86
2023-05-04T19:02:53.106Z,37.33
2023-05-04T19:05:36.818Z,37.77
2023-05-04T19:08:21.217Z,38.19
2023-05-04T19:11:04.770Z,38.15
2023-05-04T19:13:49.843Z,38.41
2023-05-04T19:16:33.572Z,38.10
2023-05-04T19:19:17.778Z,38.21
2023-05-04T19:22:01.533Z,38.36
2023-05-04T19:24:49.010Z,38.10
2023-05-04T19:27:32.555Z,38.77
2023-05-04T19:30:16.121Z,38.69
2023-05-04T19:32:59.691Z,39.69
2023-05-04T19:35:43.605Z,39.10
2023-05-04T19:38:27.713Z,39.52
2023-05-04T19:41:11.489Z,39.86
2023-05-04T19:43:55.041Z,40.05
2023-05-04T19:46:38.663Z,39.74
2023-05-04T19:49:22.213Z,40.66
2023-05-04T19:52:07.111Z,39.99
2023-05-04T19:54:53.857Z,39.97
2023-05-04T19:57:37.431Z,40.03
2023-05-04T20:00:20.961Z,39.29
2023-05-04T20:03:05.067Z,40.34
2023-05-04T20:05:51.713Z,39.29
2023-05-04T20:08:35.576Z,39.25
2023-05-04T20:11:19.144Z,39.26
2023-05-04T20:14:02.737Z,39.98
2023-05-04T20:16:46.719Z,39.89
2023-05-04T20:19:30.282Z,39.77
2023-05-04T20:22:14.227Z,39.51
2023-05-04T20:24:57.831Z,39.91
2023-05-04T20:27:41.448Z,41.30
2023-05-04T20:30:28.221Z,40.44
2023-05-04T20:33:11.839Z,40.28
2023-05-04T20:35:55.649Z,39.93
2023-05-04T20:38:39.553Z,41.35
2023-05-04T20:41:24.004Z,41.44
2023-05-04T20:44:07.611Z,43.20
2023-05-04T20:46:51.196Z,43.09
2023-05-04T20:49:34.741Z,44.27
2023-05-04T20:52:18.539Z,43.72
2023-05-04T20:55:02.176Z,44.52
2023-05-04T20:57:45.757Z,44.13
2023-05-04T21:00:30.021Z,43.92
2023-05-04T21:03:14.600Z,45.26
2023-05-04T21:05:58.989Z,45.69
2023-05-04T21:08:42.482Z,45.94
2023-05-04T21:11:26.052Z,45.88
2023-05-04T21:14:09.753Z,46.57
2023-05-04T21:16:53.319Z,46.04
2023-05-04T21:19:36.814Z,45.53
2023-05-04T21:22:20.335Z,46.54
2023-05-04T21:25:04.166Z,46.46
2023-05-04T21:27:47.740Z,46.78
2023-05-04T21:30:31.562Z,46.94
2023-05-04T21:33:15.080Z,46.85
2023-05-04T21:35:58.600Z,46.17
2023-05-04T21:38:42.856Z,46.75
2023-05-04T21:41:26.440Z,47.17
2023-05-04T21:44:09.973Z,47.50
2023-05-04T21:46:53.618Z,47.52
2023-05-04T21:49:37.199Z,47.97
2023-05-04T21:52:21.314Z,49.11
2023-05-04T21:55:05.429Z,48.40
2023-05-04T21:57:48.918Z,49.31
2023-05-04T22:00:33.263Z,48.80
2023-05-04T22:03:16.768Z,49.54
2023-05-04T22:06:00.638Z,51.17
2023-05-04T22:08:44.962Z,50.63
2023-05-04T22:11:28.761Z,50.27
2023-05-04T22:14:12.373Z,48.96
2023-05-04T22:16:56.081Z,48.30
2023-05-04T22:19:39.726Z,48.42
2023-05-04T22:22:23.229Z,49.93
2023-05-04T22:25:07.315Z,49.65
2023-05-04T22:27:50.828Z,49.60
2023-05-04T22:30:34.570Z,50.41
2023-05-04T22:33:18.310Z,49.69
2023-05-04T22:36:04.600Z,50.20
2023-05-04T22:38:50.432Z,50.93
2023-05-04T22:41:33.984Z,50.75
2023-05-04T22:44:17.480Z,51.18
2023-05-04T22:47:01.103Z,50.39
2023-05-04T22:49:44.620Z,51.75
2023-05-04T22:52:28.195Z,50.90
2023-05-04T22:55:12.146Z,50.52
2023-05-04T22:57:55.707Z,52.25
2023-05-04T23:00:39.234Z,52.15
2023-05-04T23:03:23.632Z,51.26
2023-05-04T23:06:08.883Z,52.20
2023-05-04T23:08:52.432Z,52.38
2023-05-04T23:11:35.976Z,52.86
2023-05-04T23:14:19.511Z,53.73
2023-05-04T23:17:03.159Z,55.53
2023-05-04T23:19:46.834Z,54.62
2023-05-04T23:22:30.557Z,56.66
2023-05-04T23:25:14.100Z,55.13
2023-05-04T23:27:57.683Z,55.13
2023-05-04T23:30:41.227Z,55.26
2023-05-04T23:33:24.744Z,55.28
2023-05-04T23:36:08.803Z,55.21
2023-05-04T23:38:52.374Z,56.45
2023-05-04T23:41:35.904Z,54.61
2023-05-04T23:44:20.789Z,55.32
2023-05-04T23:47:04.301Z,57.14
2023-05-04T23:49:48.158Z,54.37
2023-05-04T23:52:31.947Z,55.37
2023-05-04T23:55:15.654Z,56.31
2023-05-04T23:57:59.176Z,55.73
